createdAt,value
2022-10-26T00:01:51.491Z,11.87
2022-10-26T00:06:53.918Z,11.72
2022-10-26T00:11:56.158Z,11.55
2022-10-26T00:16:58.499Z,11.40
2022-10-26T00:22:00.756Z,11.24
2022-10-26T00:27:03.069Z,11.38
2022-10-26T00:32:06.752Z,11.47
2022-10-26T00:37:09.778Z,11.53
2022-10-26T00:42:16.052Z,11.74
2022-10-26T00:47:23.709Z,11.93
2022-10-26T00:52:26.118Z,12.19
2022-10-26T00:57:28.525Z,12.20
2022-10-26T01:02:30.882Z,12.34
2022-10-26T01:07:33.667Z,12.48
2022-10-26T01:12:36.026Z,12.68
2022-10-26T01:17:52.098Z,12.68
2022-10-26T01:23:06.380Z,12.74
2022-10-26T01:28:21.103Z,12.57
2022-10-26T01:33:47.104Z,12.48
2022-10-26T01:38:58.798Z,12.59
2022-10-26T01:44:07.988Z,12.56
2022-10-26T01:49:12.700Z,12.52
2022-10-26T01:54:15.044Z,12.45
2022-10-26T01:59:37.417Z,12.43
2022-10-26T02:04:42.383Z,12.42
2022-10-26T02:10:18.434Z,12.35
2022-10-26T02:15:35.971Z,12.19
2022-10-26T02:20:42.714Z,12.50
2022-10-26T02:25:51.165Z,12.25
2022-10-26T02:30:56.406Z,12.33
2022-10-26T02:36:01.180Z,12.39
2022-10-26T02:41:04.028Z,12.31
2022-10-26T02:46:12.395Z,12.29
2022-10-26T02:51:21.286Z,12.35
2022-10-26T02:56:45.578Z,12.22
2022-10-26T03:01:48.520Z,12.19
2022-10-26T03:06:54.885Z,12.44
2022-10-26T03:11:57.130Z,12.53
2022-10-26T03:16:59.416Z,12.30
2022-10-26T03:22:01.657Z,12.56
2022-10-26T03:27:04.107Z,12.45
2022-10-26T03:32:07.272Z,12.14
2022-10-26T03:37:09.630Z,12.37
2022-10-26T03:42:12.473Z,12.49
2022-10-26T03:47:14.909Z,12.46
2022-10-26T03:52:17.309Z,12.58
2022-10-26T03:57:19.663Z,12.76
2022-10-26T04:02:21.925Z,12.62
2022-10-26T04:07:24.330Z,12.39
2022-10-26T04:12:26.799Z,12.73
2022-10-26T04:17:29.126Z,12.73
2022-10-26T04:22:31.358Z,12.76
2022-10-26T04:27:34.033Z,12.53
2022-10-26T04:32:36.572Z,12.43
2022-10-26T04:37:38.862Z,12.53
2022-10-26T04:42:48.192Z,12.76
2022-10-26T04:48:08.385Z,12.85
2022-10-26T04:53:12.516Z,12.75
2022-10-26T04:58:14.810Z,12.71
2022-10-26T05:03:17.258Z,12.66
2022-10-26T05:08:19.603Z,12.81
2022-10-26T05:13:22.195Z,12.89
2022-10-26T05:18:24.803Z,13.04
2022-10-26T05:23:27.286Z,12.78
2022-10-26T05:28:29.856Z,12.98
2022-10-26T05:33:32.149Z,12.87
2022-10-26T05:38:34.470Z,12.93
2022-10-26T05:43:36.798Z,12.90
2022-10-26T05:48:39.102Z,13.19
2022-10-26T05:53:41.641Z,13.22
2022-10-26T05:58:44.279Z,13.25
2022-10-26T06:04:07.928Z,13.28
2022-10-26T06:09:14.288Z,13.41
2022-10-26T06:14:17.046Z,13.25
2022-10-26T06:19:42.420Z,13.33
2022-10-26T06:24:49.513Z,13.35
2022-10-26T06:29:58.544Z,13.54
2022-10-26T06:35:14.863Z,13.41
2022-10-26T06:40:18.686Z,13.13
2022-10-26T06:45:21.466Z,13.32
2022-10-26T06:50:30.194Z,13.24
2022-10-26T06:55:41.847Z,13.38
2022-10-26T07:00:45.963Z,13.28
2022-10-26T07:05:48.498Z,13.54
2022-10-26T07:10:50.836Z,13.29
2022-10-26T07:15:53.141Z,13.51
2022-10-26T07:20:55.430Z,13.31
2022-10-26T07:26:00.577Z,13.61
2022-10-26T07:31:02.986Z,13.49
2022-10-26T07:36:05.614Z,13.44
2022-10-26T07:41:07.993Z,13.36
2022-10-26T07:46:10.418Z,13.44
2022-10-26T07:51:13.214Z,13.49
2022-10-26T07:56:15.614Z,13.80
2022-10-26T08:01:18.062Z,13.88
2022-10-26T08:06:22.330Z,14.06
2022-10-26T08:11:25.025Z,14.21
2022-10-26T08:16:27.412Z,13.82
2022-10-26T08:21:40.047Z,14.01
2022-10-26T08:26:43.536Z,14.05
2022-10-26T08:31:48.244Z,14.24
2022-10-26T08:36:50.721Z,14.25
2022-10-26T08:42:02.508Z,14.03
2022-10-26T08:47:10.328Z,14.07
2022-10-26T08:52:16.229Z,14.03
2022-10-26T08:57:24.381Z,13.87
2022-10-26T09:02:26.859Z,13.70
2022-10-26T09:07:45.729Z,14.03
2022-10-26T09:13:03.493Z,13.53
2022-10-26T09:18:23.821Z,13.99
2022-10-26T09:23:38.154Z,13.98
2022-10-26T09:28:41.937Z,13.84
2022-10-26T09:33:44.388Z,13.95
2022-10-26T09:39:24.614Z,14.15
2022-10-26T09:44:31.587Z,14.06
2022-10-26T09:49:42.869Z,14.28
2022-10-26T09:54:45.256Z,14.33
2022-10-26T09:59:48.787Z,14.36
2022-10-26T10:04:51.145Z,14.74
2022-10-26T10:10:17.078Z,14.63
2022-10-26T10:15:19.477Z,15.02
2022-10-26T10:20:24.077Z,14.87
2022-10-26T10:25:37.450Z,14.36
2022-10-26T10:30:39.829Z,14.63
2022-10-26T10:35:51.897Z,15.06
2022-10-26T10:40:56.657Z,14.73
2022-10-26T10:45:59.827Z,14.70
2022-10-26T10:51:12.562Z,14.93
2022-10-26T10:56:41.883Z,14.96
2022-10-26T11:01:52.036Z,14.86
2022-10-26T11:06:57.639Z,14.93
2022-10-26T11:12:24.041Z,14.92
2022-10-26T11:17:46.617Z,15.09
2022-10-26T11:23:06.111Z,15.15
2022-10-26T11:28:19.185Z,14.75
2022-10-26T11:33:28.570Z,14.80
2022-10-26T11:38:56.029Z,14.73
2022-10-26T11:44:23.260Z,14.81
2022-10-26T11:49:43.134Z,14.91
2022-10-26T11:54:49.565Z,15.00
2022-10-26T12:00:02.844Z,14.90
2022-10-26T12:05:18.207Z,14.69
2022-10-26T12:10:30.135Z,15.12
2022-10-26T12:16:01.568Z,15.17
2022-10-26T12:21:05.027Z,14.93
2022-10-26T12:26:25.408Z,15.20
2022-10-26T12:31:33.921Z,15.00
2022-10-26T12:36:57.805Z,15.03
2022-10-26T12:42:11.055Z,14.95
2022-10-26T12:47:33.533Z,14.96
2022-10-26T12:53:01.421Z,15.24
2022-10-26T12:58:28.032Z,15.03
2022-10-26T13:03:52.102Z,14.72
2022-10-26T13:09:00.274Z,14.49
2022-10-26T13:14:07.823Z,14.84
2022-10-26T13:19:27.294Z,14.57
2022-10-26T13:24:32.259Z,14.49
2022-10-26T13:30:09.698Z,14.90
2022-10-26T13:35:15.280Z,14.76
2022-10-26T13:40:19.928Z,14.45
2022-10-26T13:45:24.070Z,14.64
2022-10-26T13:50:53.701Z,14.82
2022-10-26T13:56:04.329Z,14.75
2022-10-26T14:01:21.684Z,14.29
2022-10-26T14:06:31.668Z,14.54
2022-10-26T14:11:44.564Z,14.54
2022-10-26T14:16:47.457Z,14.15
2022-10-26T14:21:51.037Z,14.28
2022-10-26T14:26:53.518Z,14.17
2022-10-26T14:31:55.923Z,14.30
2022-10-26T14:37:04.262Z,14.20
2022-10-26T14:42:30.689Z,14.41
2022-10-26T14:47:34.029Z,14.38
2022-10-26T14:52:37.516Z,14.37
2022-10-26T14:57:41.126Z,14.47
2022-10-26T15:02:45.157Z,14.46
2022-10-26T15:07:48.225Z,14.51
2022-10-26T15:12:50.662Z,14.57
2022-10-26T15:17:55.178Z,14.62
2022-10-26T15:23:03.667Z,14.64
2022-10-26T15:28:11.122Z,14.68
2022-10-26T15:33:22.473Z,14.48
2022-10-26T15:38:28.574Z,14.55
2022-10-26T15:43:32.334Z,14.58
2022-10-26T15:48:36.241Z,14.38
2022-10-26T15:53:38.602Z,14.21
2022-10-26T15:58:40.941Z,14.18
2022-10-26T16:03:43.639Z,14.05
2022-10-26T16:08:50.893Z,13.91
2022-10-26T16:13:54.512Z,13.84
2022-10-26T16:19:18.349Z,13.82
2022-10-26T16:24:20.832Z,13.75
2022-10-26T16:29:24.062Z,13.87
2022-10-26T16:34:26.425Z,14.04
2022-10-26T16:39:28.781Z,14.03
2022-10-26T16:44:31.088Z,13.80
2022-10-26T16:49:33.462Z,13.83
2022-10-26T16:54:36.018Z,13.69
2022-10-26T16:59:38.407Z,13.93
2022-10-26T17:04:40.679Z,13.95
2022-10-26T17:09:44.479Z,13.83
2022-10-26T17:14:47.302Z,13.63
2022-10-26T17:19:49.867Z,13.45
2022-10-26T17:24:52.141Z,13.50
2022-10-26T17:29:54.405Z,13.39
2022-10-26T17:34:56.793Z,13.20
2022-10-26T17:39:59.066Z,13.11
2022-10-26T17:45:01.356Z,12.93
2022-10-26T17:50:05.031Z,12.77
2022-10-26T17:55:07.452Z,12.56
2022-10-26T18:00:10.306Z,12.39
2022-10-26T18:05:15.606Z,12.29
2022-10-26T18:10:36.928Z,12.25
2022-10-26T18:15:40.299Z,12.08
2022-10-26T18:20:42.626Z,11.96
2022-10-26T18:25:44.993Z,11.85
2022-10-26T18:30:47.292Z,11.76
2022-10-26T18:35:50.047Z,11.64
2022-10-26T18:40:53.773Z,11.54
2022-10-26T18:46:06.305Z,11.57
2022-10-26T18:51:11.019Z,11.42
2022-10-26T18:56:20.921Z,11.26
2022-10-26T19:01:26.002Z,11.25
2022-10-26T19:06:31.355Z,11.28
2022-10-26T19:11:34.323Z,11.36
2022-10-26T19:16:52.404Z,11.21
2022-10-26T19:21:54.806Z,11.38
2022-10-26T19:26:57.244Z,11.19
2022-10-26T19:31:59.847Z,11.18
2022-10-26T19:37:02.198Z,11.15
2022-10-26T19:42:04.653Z,11.19
2022-10-26T19:47:07.173Z,11.33
2022-10-26T19:52:09.593Z,11.44
2022-10-26T19:57:12.194Z,11.69
2022-10-26T20:02:14.636Z,11.89
2022-10-26T20:07:19.158Z,12.08
2022-10-26T20:12:23.296Z,12.26
2022-10-26T20:17:28.498Z,12.43
2022-10-26T20:22:31.144Z,12.59
2022-10-26T20:27:42.295Z,12.72
2022-10-26T20:32:45.491Z,12.68
2022-10-26T20:37:48.744Z,12.63
2022-10-26T20:42:52.864Z,12.39
2022-10-26T20:47:57.768Z,12.41
2022-10-26T20:53:37.325Z,12.49
2022-10-26T20:58:45.038Z,12.49
2022-10-26T21:03:47.624Z,12.60
2022-10-26T21:08:51.339Z,12.54
2022-10-26T21:13:55.670Z,12.58
2022-10-26T21:19:01.478Z,12.45
2022-10-26T21:24:04.234Z,12.32
2022-10-26T21:29:07.692Z,12.14
2022-10-26T21:34:12.452Z,11.96
2022-10-26T21:39:18.365Z,11.76
2022-10-26T21:44:35.610Z,11.79
2022-10-26T21:49:42.895Z,11.69
2022-10-26T21:54:48.240Z,11.44
2022-10-26T21:59:50.974Z,11.36
2022-10-26T22:04:58.991Z,11.29
2022-10-26T22:10:11.531Z,11.20
2022-10-26T22:15:14.095Z,11.30
2022-10-26T22:20:16.503Z,11.31
2022-10-26T22:25:18.824Z,11.16
2022-10-26T22:30:21.493Z,11.51
2022-10-26T22:35:29.351Z,11.47
2022-10-26T22:40:31.930Z,11.51
2022-10-26T22:45:34.248Z,11.57
2022-10-26T22:50:38.503Z,11.45
2022-10-26T22:55:42.430Z,11.52
2022-10-26T23:00:44.832Z,11.51
2022-10-26T23:05:50.211Z,11.62
2022-10-26T23:10:52.547Z,11.57
2022-10-26T23:15:55.069Z,11.73
2022-10-26T23:20:57.546Z,11.89
2022-10-26T23:26:05.055Z,11.96
2022-10-26T23:31:07.870Z,11.90
2022-10-26T23:36:10.369Z,12.08
2022-10-26T23:41:13.170Z,12.05
2022-10-26T23:46:15.755Z,12.10
2022-10-26T23:51:18.125Z,12.07
2022-10-26T23:56:20.407Z,11.99
